Floweree, Montana
Current Conditions -  °F | °C
As of 5:56 PM on Thursday 18 Dec 2014 (Local Time) from KGFA Reporting Station
Broken Clouds Broken Clouds  
Wind Chill: 28°   Ceiling: 15000
Heat Index: 37°   Visibility: 10mi
Dew Point: 28°   Wind: 14mph
Humidity: 70%   Direction: 230°SW
Pressure: 29.93"   Gusts: NA
Location:  47.73°N, 111.03°W
Report Text: KGFA 190056Z AUTO 23012KT 10SM BKN150 03/M02 A2993 RMK AO2 SLP163 T00261023
Loading
Personal Weather Stations






























Interactive Weather Map New forecast layout! Learn more

10-Day Weather Forecast

Advertisements
Track Severe Weather on mobile